createdAt,value
2018-08-20T00:00:49.706Z,13.47
2018-08-20T00:03:18.174Z,14.30
2018-08-20T00:05:50.114Z,13.77
2018-08-20T00:08:18.646Z,13.67
2018-08-20T00:10:47.231Z,14.60
2018-08-20T00:13:15.898Z,15.37
2018-08-20T00:15:44.332Z,16.33
2018-08-20T00:18:17.808Z,13.90
2018-08-20T00:20:46.639Z,13.53
2018-08-20T00:23:15.173Z,13.93
2018-08-20T00:25:43.647Z,15.23
2018-08-20T00:28:12.125Z,14.57
2018-08-20T00:30:42.735Z,14.10
2018-08-20T00:33:11.232Z,14.17
2018-08-20T00:35:39.742Z,13.07
2018-08-20T00:38:08.251Z,14.63
2018-08-20T00:40:36.749Z,12.80
2018-08-20T00:43:05.337Z,14.33
2018-08-20T00:45:33.801Z,13.70
2018-08-20T00:48:02.294Z,13.23
2018-08-20T00:50:30.721Z,12.90
2018-08-20T00:52:59.185Z,11.93
2018-08-20T00:55:27.661Z,12.20
2018-08-20T00:57:56.148Z,12.13
2018-08-20T01:00:24.619Z,11.50
2018-08-20T01:02:53.089Z,11.07
2018-08-20T01:05:21.580Z,11.03
2018-08-20T01:07:50.048Z,11.43
2018-08-20T01:10:18.516Z,11.87
2018-08-20T01:12:46.961Z,10.47
2018-08-20T01:15:15.431Z,10.20
2018-08-20T01:17:43.885Z,9.03
2018-08-20T01:20:12.364Z,8.90
2018-08-20T01:22:40.872Z,8.27
2018-08-20T01:25:09.354Z,8.60
2018-08-20T01:27:37.774Z,7.97
2018-08-20T01:30:06.366Z,7.50
2018-08-20T01:32:34.828Z,7.43
2018-08-20T01:35:17.900Z,8.33
2018-08-20T01:37:46.801Z,7.63
2018-08-20T01:40:15.244Z,7.00
2018-08-20T01:42:43.690Z,7.47
2018-08-20T01:45:12.160Z,8.10
2018-08-20T01:47:40.635Z,6.90
2018-08-20T01:50:09.196Z,6.93
2018-08-20T01:52:37.645Z,7.63
2018-08-20T01:55:06.533Z,7.90
2018-08-20T01:57:35.024Z,7.70
2018-08-20T02:00:03.595Z,7.50
2018-08-20T02:02:32.036Z,8.60
2018-08-20T02:05:00.537Z,7.10
2018-08-20T02:07:28.976Z,6.90
2018-08-20T02:09:57.520Z,6.70
2018-08-20T02:12:26.824Z,8.27
2018-08-20T02:14:55.317Z,6.03
2018-08-20T02:17:23.773Z,6.17
2018-08-20T02:19:52.236Z,6.07
2018-08-20T02:22:20.679Z,5.87
2018-08-20T02:24:49.132Z,5.77
2018-08-20T02:27:17.666Z,5.80
2018-08-20T02:29:46.093Z,5.90
2018-08-20T02:32:14.561Z,6.30
2018-08-20T02:34:42.999Z,5.93
2018-08-20T02:37:11.432Z,5.50
2018-08-20T02:39:40.016Z,5.73
2018-08-20T02:42:08.488Z,6.33
2018-08-20T02:44:36.972Z,6.37
2018-08-20T02:47:05.568Z,6.10
2018-08-20T02:49:34.057Z,5.57
2018-08-20T02:52:02.517Z,5.77
2018-08-20T02:54:30.980Z,6.20
2018-08-20T02:56:59.477Z,6.60
2018-08-20T02:59:27.976Z,5.40
2018-08-20T03:01:56.448Z,5.57
2018-08-20T03:04:24.917Z,5.50
2018-08-20T03:06:53.409Z,5.73
2018-08-20T03:09:21.870Z,5.90
2018-08-20T03:11:50.331Z,5.77
2018-08-20T03:14:18.777Z,5.90
2018-08-20T03:16:47.276Z,6.10
2018-08-20T03:19:15.834Z,5.07
2018-08-20T03:21:44.316Z,6.77
2018-08-20T03:24:12.764Z,6.30
2018-08-20T03:26:41.228Z,6.23
2018-08-20T03:29:09.690Z,6.03
2018-08-20T03:31:38.149Z,5.80
2018-08-20T03:34:06.878Z,5.93
2018-08-20T03:36:35.400Z,6.20
2018-08-20T03:39:05.701Z,6.37
2018-08-20T03:41:34.171Z,5.83
2018-08-20T03:44:02.813Z,5.93
2018-08-20T03:46:31.276Z,5.67
2018-08-20T03:48:59.746Z,6.00
2018-08-20T03:51:28.262Z,5.60
2018-08-20T03:53:56.757Z,6.13
2018-08-20T03:56:25.241Z,6.17
2018-08-20T03:58:53.669Z,5.13
2018-08-20T04:01:22.169Z,5.57
2018-08-20T04:03:50.637Z,6.00
2018-08-20T04:06:19.673Z,5.17
2018-08-20T04:08:48.212Z,5.40
2018-08-20T04:11:16.654Z,4.87
2018-08-20T04:13:45.097Z,5.17
2018-08-20T04:16:13.579Z,4.70
2018-08-20T04:18:42.090Z,7.60
2018-08-20T04:21:10.563Z,5.30
2018-08-20T04:23:39.006Z,5.73
2018-08-20T04:26:07.470Z,5.70
2018-08-20T04:28:35.932Z,5.73
2018-08-20T04:31:04.496Z,5.70
2018-08-20T04:33:32.923Z,5.50
2018-08-20T04:36:01.388Z,6.37
2018-08-20T04:38:29.809Z,5.70
2018-08-20T04:40:58.282Z,5.93
2018-08-20T04:43:26.742Z,5.33
2018-08-20T04:45:55.192Z,5.37
2018-08-20T04:48:23.657Z,5.83
2018-08-20T04:50:52.189Z,6.40
2018-08-20T04:53:20.552Z,6.20
2018-08-20T04:55:49.011Z,6.20
2018-08-20T04:58:17.460Z,6.07
2018-08-20T05:00:45.920Z,6.70
2018-08-20T05:03:16.272Z,5.57
2018-08-20T05:05:44.738Z,5.80
2018-08-20T05:08:13.344Z,5.83
2018-08-20T05:10:41.805Z,7.07
2018-08-20T05:13:18.352Z,8.37
2018-08-20T05:15:49.177Z,8.70
2018-08-20T05:18:17.658Z,8.87
2018-08-20T05:20:46.107Z,8.53
2018-08-20T05:23:14.596Z,8.80
2018-08-20T05:25:43.038Z,8.73
2018-08-20T05:28:11.542Z,10.40
2018-08-20T05:30:40.050Z,11.10
2018-08-20T05:33:09.056Z,13.00
2018-08-20T05:35:37.596Z,13.63
2018-08-20T05:38:06.066Z,11.80
2018-08-20T05:40:34.519Z,14.03
2018-08-20T05:43:03.012Z,13.43
2018-08-20T05:45:31.542Z,13.50
2018-08-20T05:48:00.045Z,14.40
2018-08-20T05:50:28.840Z,14.03
2018-08-20T05:52:57.271Z,16.60
2018-08-20T05:55:25.725Z,15.23
2018-08-20T05:57:54.217Z,16.60
2018-08-20T06:00:22.684Z,15.03
2018-08-20T06:02:51.156Z,16.77
2018-08-20T06:05:19.629Z,16.17
2018-08-20T06:07:48.150Z,17.20
2018-08-20T06:10:16.686Z,15.10
2018-08-20T06:12:45.153Z,17.40
2018-08-20T06:15:14.407Z,14.20
2018-08-20T06:17:42.869Z,13.97
2018-08-20T06:20:14.385Z,15.90
2018-08-20T06:22:42.970Z,14.40
2018-08-20T06:25:12.356Z,15.60
2018-08-20T06:27:41.460Z,16.73
2018-08-20T06:30:16.458Z,14.17
2018-08-20T06:32:45.372Z,13.53
2018-08-20T06:35:14.461Z,16.40
2018-08-20T06:37:42.969Z,14.93
2018-08-20T06:40:13.420Z,14.90
2018-08-20T06:42:41.881Z,14.33
2018-08-20T06:45:15.192Z,14.47
2018-08-20T06:47:44.490Z,14.63
2018-08-20T06:50:13.887Z,14.83
2018-08-20T06:52:44.125Z,14.40
2018-08-20T06:55:13.598Z,14.63
2018-08-20T06:57:43.184Z,15.60
2018-08-20T07:00:13.520Z,14.50
2018-08-20T07:02:42.084Z,15.43
2018-08-20T07:05:10.614Z,14.53
2018-08-20T07:07:40.200Z,14.13
2018-08-20T07:10:11.657Z,13.67
2018-08-20T07:12:40.228Z,13.03
2018-08-20T07:15:10.324Z,12.47
2018-08-20T07:17:39.094Z,13.07
2018-08-20T07:20:09.474Z,13.90
2018-08-20T07:22:38.080Z,13.30
2018-08-20T07:25:07.330Z,15.07
2018-08-20T07:27:38.224Z,13.40
2018-08-20T07:30:09.076Z,12.30
2018-08-20T07:32:37.669Z,12.47
2018-08-20T07:35:06.507Z,12.80
2018-08-20T07:37:35.064Z,12.03
2018-08-20T07:40:03.820Z,12.17
2018-08-20T07:42:53.856Z,12.87
2018-08-20T07:45:23.358Z,12.20
2018-08-20T07:47:51.858Z,11.30
2018-08-20T07:50:20.437Z,10.80
2018-08-20T07:52:49.205Z,10.47
2018-08-20T07:55:17.731Z,11.70
2018-08-20T07:57:46.256Z,10.30
2018-08-20T08:00:14.759Z,12.20
2018-08-20T08:02:43.281Z,10.93
2018-08-20T08:05:12.320Z,10.70
2018-08-20T08:07:41.204Z,11.20
2018-08-20T08:10:14.492Z,11.30
2018-08-20T08:12:43.013Z,11.50
2018-08-20T08:15:13.165Z,11.03
2018-08-20T08:17:42.907Z,11.20
2018-08-20T08:20:12.584Z,12.07
2018-08-20T08:22:41.389Z,10.43
2018-08-20T08:25:10.176Z,10.27
2018-08-20T08:27:38.836Z,10.50
2018-08-20T08:30:10.572Z,9.63
2018-08-20T08:32:39.092Z,9.50
2018-08-20T08:35:08.661Z,9.27
2018-08-20T08:37:37.772Z,8.70
2018-08-20T08:40:06.278Z,8.60
2018-08-20T08:42:35.051Z,11.50
2018-08-20T08:45:04.353Z,10.37
2018-08-20T08:47:32.796Z,8.80
2018-08-20T08:50:01.351Z,8.70
2018-08-20T08:52:29.816Z,8.40
2018-08-20T08:54:58.333Z,8.53
2018-08-20T08:57:27.008Z,7.47
2018-08-20T08:59:55.492Z,8.07
2018-08-20T09:02:24.000Z,8.10
2018-08-20T09:04:52.485Z,6.97
2018-08-20T09:07:20.976Z,7.53
2018-08-20T09:09:49.436Z,8.53
2018-08-20T09:12:17.870Z,9.27
2018-08-20T09:14:46.349Z,8.63
2018-08-20T09:17:14.869Z,7.90
2018-08-20T09:19:43.341Z,8.93
2018-08-20T09:22:11.886Z,7.33
2018-08-20T09:24:40.360Z,8.00
2018-08-20T09:27:09.004Z,8.10
2018-08-20T09:29:37.476Z,9.00
2018-08-20T09:32:05.996Z,9.63
2018-08-20T09:34:34.439Z,7.73
2018-08-20T09:37:02.916Z,9.30
2018-08-20T09:39:31.398Z,8.90
2018-08-20T09:41:59.872Z,9.07
2018-08-20T09:44:28.457Z,10.17
2018-08-20T09:46:56.936Z,9.20
2018-08-20T09:49:25.432Z,9.97
2018-08-20T09:51:53.909Z,8.00
2018-08-20T09:54:22.378Z,9.07
2018-08-20T09:56:50.882Z,9.90
2018-08-20T09:59:19.380Z,10.40
2018-08-20T10:01:48.472Z,10.70
2018-08-20T10:04:16.897Z,9.30
2018-08-20T10:06:45.400Z,10.27
2018-08-20T10:09:13.872Z,10.47
2018-08-20T10:11:42.338Z,10.43
2018-08-20T10:14:10.808Z,11.13
2018-08-20T10:16:39.337Z,11.80
2018-08-20T10:19:08.413Z,11.43
2018-08-20T10:21:36.898Z,12.53
2018-08-20T10:24:05.382Z,10.57
2018-08-20T10:26:34.501Z,9.80
2018-08-20T10:29:03.009Z,11.20
2018-08-20T10:31:31.464Z,11.13
2018-08-20T10:33:59.960Z,11.13
2018-08-20T10:36:28.523Z,12.30
2018-08-20T10:38:56.965Z,11.80
2018-08-20T10:41:25.477Z,9.17
2018-08-20T10:43:54.470Z,9.27
2018-08-20T10:46:25.958Z,9.70
2018-08-20T10:48:55.332Z,10.87
2018-08-20T10:51:23.835Z,9.67
2018-08-20T10:53:52.522Z,9.30
2018-08-20T10:56:21.074Z,9.90
2018-08-20T10:58:49.516Z,10.83
2018-08-20T11:01:18.027Z,12.00
2018-08-20T11:03:48.108Z,10.77
2018-08-20T11:06:17.212Z,11.83
2018-08-20T11:08:45.700Z,12.00
2018-08-20T11:11:14.412Z,9.90
2018-08-20T11:13:42.929Z,12.20
2018-08-20T11:16:11.665Z,12.37
2018-08-20T11:18:40.131Z,12.80
2018-08-20T11:21:08.626Z,14.23
2018-08-20T11:23:37.099Z,13.07
2018-08-20T11:26:05.593Z,12.13
2018-08-20T11:28:34.089Z,11.83
2018-08-20T11:31:02.560Z,12.87
2018-08-20T11:33:31.136Z,11.97
2018-08-20T11:35:59.626Z,11.77
2018-08-20T11:38:28.096Z,12.47
2018-08-20T11:40:56.593Z,12.37
2018-08-20T11:43:25.048Z,12.70
2018-08-20T11:45:54.012Z,12.40
2018-08-20T11:48:22.816Z,13.13
2018-08-20T11:50:51.296Z,12.40
2018-08-20T11:53:19.791Z,11.93
2018-08-20T11:55:48.260Z,13.50
2018-08-20T11:58:16.728Z,12.47
2018-08-20T12:00:45.196Z,12.10
2018-08-20T12:03:13.717Z,13.33
2018-08-20T12:05:42.186Z,15.63
2018-08-20T12:08:10.662Z,14.20
2018-08-20T12:10:39.152Z,12.93
2018-08-20T12:13:07.635Z,13.73
2018-08-20T12:15:36.068Z,11.83
2018-08-20T12:18:04.585Z,13.73
2018-08-20T12:20:33.054Z,12.10
2018-08-20T12:23:01.583Z,12.60
2018-08-20T12:25:29.992Z,13.77
2018-08-20T12:27:58.485Z,15.20
2018-08-20T12:30:26.928Z,13.37
2018-08-20T12:32:55.399Z,12.13
2018-08-20T12:35:23.832Z,13.23
2018-08-20T12:37:52.341Z,12.30
2018-08-20T12:40:20.899Z,13.60
2018-08-20T12:42:49.322Z,13.07
2018-08-20T12:45:17.876Z,13.77
2018-08-20T12:47:46.376Z,13.80
2018-08-20T12:50:14.885Z,12.60
2018-08-20T12:52:43.377Z,13.20
2018-08-20T12:55:11.861Z,14.07
2018-08-20T12:57:40.324Z,13.53
2018-08-20T13:00:08.825Z,13.07
2018-08-20T13:02:37.333Z,16.53
2018-08-20T13:05:05.912Z,14.53
2018-08-20T13:07:34.536Z,14.20
2018-08-20T13:10:03.032Z,13.37
2018-08-20T13:12:31.484Z,14.70
2018-08-20T13:15:00.067Z,15.67
2018-08-20T13:17:28.511Z,14.87
2018-08-20T13:19:57.013Z,15.53
2018-08-20T13:22:25.510Z,13.47
2018-08-20T13:24:54.020Z,11.67
2018-08-20T13:27:22.524Z,12.90
2018-08-20T13:29:51.856Z,11.87
2018-08-20T13:32:20.359Z,12.20
2018-08-20T13:34:48.860Z,12.80
2018-08-20T13:37:17.383Z,12.90
2018-08-20T13:39:46.100Z,12.30
2018-08-20T13:42:14.571Z,10.50
2018-08-20T13:44:43.084Z,10.67
2018-08-20T13:47:11.584Z,10.40
2018-08-20T13:49:40.032Z,12.83
2018-08-20T13:52:08.536Z,14.37
2018-08-20T13:54:37.009Z,14.87
2018-08-20T13:57:05.492Z,12.30
2018-08-20T13:59:33.952Z,11.23
2018-08-20T14:02:02.468Z,12.90
2018-08-20T14:04:30.949Z,12.47
2018-08-20T14:06:59.441Z,10.43
2018-08-20T14:09:27.903Z,12.37
2018-08-20T14:11:56.337Z,11.90
2018-08-20T14:14:24.777Z,10.60
2018-08-20T14:16:53.245Z,11.30
2018-08-20T14:19:21.714Z,12.83
2018-08-20T14:21:50.192Z,12.20
2018-08-20T14:24:18.981Z,11.40
2018-08-20T14:26:47.419Z,12.60
2018-08-20T14:29:15.897Z,12.07
2018-08-20T14:31:44.333Z,10.23
2018-08-20T14:34:12.766Z,11.13
2018-08-20T14:36:41.435Z,11.23
2018-08-20T14:39:09.796Z,11.07
2018-08-20T14:41:38.268Z,10.33
2018-08-20T14:44:06.694Z,11.40
2018-08-20T14:46:35.234Z,13.00
2018-08-20T14:49:03.684Z,10.60
2018-08-20T14:51:32.170Z,11.83
2018-08-20T14:54:00.646Z,10.97
2018-08-20T14:56:29.133Z,11.93
2018-08-20T14:58:57.564Z,11.83
2018-08-20T15:01:27.003Z,11.97
2018-08-20T15:03:55.436Z,11.73
2018-08-20T15:06:23.932Z,12.00
2018-08-20T15:08:52.408Z,11.20
2018-08-20T15:11:20.874Z,11.20
2018-08-20T15:13:49.407Z,10.90
2018-08-20T15:16:18.950Z,12.90
2018-08-20T15:18:47.401Z,11.10
2018-08-20T15:21:15.875Z,12.20
2018-08-20T15:23:44.340Z,12.30
2018-08-20T15:26:12.772Z,12.37
2018-08-20T15:28:41.253Z,11.00
2018-08-20T15:31:09.768Z,12.00
2018-08-20T15:33:38.215Z,12.57
2018-08-20T15:36:06.663Z,12.00
2018-08-20T15:38:35.136Z,11.00
2018-08-20T15:41:03.616Z,10.97
2018-08-20T15:43:32.084Z,10.90
2018-08-20T15:46:00.546Z,11.07
2018-08-20T15:48:29.017Z,10.73
2018-08-20T15:50:57.501Z,10.70
2018-08-20T15:53:26.046Z,10.53
2018-08-20T15:55:54.532Z,9.70
2018-08-20T15:58:22.987Z,10.10
2018-08-20T16:00:51.432Z,10.73
2018-08-20T16:03:19.884Z,10.50
2018-08-20T16:05:48.372Z,9.73
2018-08-20T16:08:16.830Z,9.77
2018-08-20T16:10:45.345Z,9.07
2018-08-20T16:13:13.845Z,10.17
2018-08-20T16:15:42.303Z,9.80
2018-08-20T16:18:10.797Z,11.97
2018-08-20T16:20:39.276Z,9.57
2018-08-20T16:23:07.976Z,10.80
2018-08-20T16:25:37.133Z,11.50
2018-08-20T16:28:05.778Z,11.20
2018-08-20T16:30:34.224Z,9.67
2018-08-20T16:33:02.764Z,11.00
2018-08-20T16:35:31.252Z,14.60
2018-08-20T16:37:59.811Z,20.43
2018-08-20T16:40:28.288Z,20.10
2018-08-20T16:42:56.799Z,20.20
2018-08-20T16:45:25.354Z,22.90
2018-08-20T16:47:53.796Z,20.63
2018-08-20T16:50:22.348Z,21.77
2018-08-20T16:52:50.987Z,20.30
2018-08-20T16:55:19.481Z,19.13
2018-08-20T16:57:47.969Z,18.80
2018-08-20T17:00:16.438Z,18.63
2018-08-20T17:02:45.002Z,18.43
2018-08-20T17:05:14.416Z,19.60
2018-08-20T17:07:42.943Z,19.10
2018-08-20T17:10:12.673Z,21.47
2018-08-20T17:12:41.547Z,20.10
2018-08-20T17:15:12.497Z,20.30
2018-08-20T17:17:41.153Z,20.43
2018-08-20T17:20:10.992Z,18.63
2018-08-20T17:22:39.764Z,19.53
2018-08-20T17:25:08.772Z,19.27
2018-08-20T17:27:37.240Z,18.10
2018-08-20T17:30:07.975Z,20.97
2018-08-20T17:32:36.497Z,20.37
2018-08-20T17:35:07.785Z,17.90
2018-08-20T17:37:37.288Z,17.87
2018-08-20T17:40:08.551Z,18.43
2018-08-20T17:42:37.485Z,17.80
2018-08-20T17:45:10.376Z,17.13
2018-08-20T17:47:39.711Z,17.83
2018-08-20T17:50:23.665Z,16.10
2018-08-20T17:52:52.146Z,15.73
2018-08-20T17:55:21.546Z,15.23
2018-08-20T17:57:50.017Z,13.87
2018-08-20T18:00:25.145Z,14.77
2018-08-20T18:02:53.613Z,14.37
2018-08-20T18:05:23.563Z,12.57
2018-08-20T18:07:52.637Z,12.07
2018-08-20T18:10:21.271Z,12.90
2018-08-20T18:12:49.852Z,12.47
2018-08-20T18:15:18.398Z,12.53
2018-08-20T18:17:47.404Z,12.13
